Canovanas, PR

1:58 AM AST on September 19, 2014 (GMT -0400)
Cañabon | Change Station
CLOSE
Current Station
Personal Weather Station
Location: Caguas, CAGUAS
Elevation: 263 ft
Nearby Weather Stations

Elev 263 ft 18.24 °N, 66.06 °W | Updated 11 minutes ago

Thunderstorm
Thunderstorm
74.8 °F
Feels Like 74 °F
N
0.0
Wind Variable Wind from ESE

Today
High -- | Low -- °F
--% Chance of Precip.
Yesterday
High -- | Low -- °F
Precip. -- in
6:12 AM 6:22 PM
Waning Crescent, 21% visible
Pressure 29.95 in
Visibility 10.0 miles
Clouds Few 3700 ft
Scattered Clouds 8000 ft
Scattered Clouds 9000 ft
Heat Index 74 °F
Dew Point 72 °F
Humidity 91%
Rainfall 0.00 in
Snow Depth Not available.
UV 0 out of 12
Pollen Not available.
Air Quality Not available.
Flu Activity Not available.
SPECI TJSJ 190501Z 23005KT 10SM TS FEW037CB SCT080 SCT090 26/24 A2995 RMK AO2 TSB01 CONS LTGICCGCACC NE TS NE MOV NW VCSH NE

More Conditions Fewer Conditions

Pressure 29.95 in
Visibility 10.0 miles
Clouds Few 3700 ft
Scattered Clouds 8000 ft
Scattered Clouds 9000 ft
Heat Index 74 °F
Dew Point 72 °F
Humidity 91%
Rainfall 0.00 in
Snow Depth Not available.
UV 0 out of 12
Pollen Not available.
Air Quality Not available.
Flu Activity Not available.
SPECI TJSJ 190501Z 23005KT 10SM TS FEW037CB SCT080 SCT090 26/24 A2995 RMK AO2 TSB01 CONS LTGICCGCACC NE TS NE MOV NW VCSH NE

More Conditions Fewer Conditions

10-Day Weather Forecast

Almanac

Astronomy

Sep. 19, 2014 Rise Set
Actual Time 6:12 AM AST 6:22 PM AST
Civil Twilight 5:50 AM AST 6:44 PM AST
Nautical Twilight 5:24 AM AST 7:09 PM AST
Astronomical Twilight 4:59 AM AST 7:35 PM AST
Moon 2:22 AM AST 3:23 PM AST
Length of Visible Light 12h 53m
Length of Day
12h 10m
Tomorrow will be 1m 2s shorter.
Waning Crescent, 21% of the Moon is Illuminated
Today
Waning Crescent
Sep 24
New
Oct 1
First Quarter
Oct 8
Full
Oct 15
Last Quarter

Community

WunderPhotos

Upload Photos

1,754,573 photos uploaded!

Nearby

Snow Depth

Station Depth Elevation
No new snow has been reported.

Earthquake Activity

City Distance Mag. Time & Date
No recent earthquake activity has been reported nearby.
Minimum magnitude displayed is 2.5.

Coastal Water Temperatures

Place Temperature
San Juan, PR 84.9 °F
Mayaguez, PR 84.9 °F
Esperanza, PR 86.0 °F

Nearby Weather Stations